createdAt,value
2022-12-26T00:00:09.196Z,0
2022-12-26T00:01:48.951Z,0
2022-12-26T00:03:28.726Z,0
2022-12-26T00:05:08.500Z,0
2022-12-26T00:06:48.260Z,0
2022-12-26T00:08:28.031Z,0
2022-12-26T00:10:07.799Z,0
2022-12-26T00:11:47.570Z,0
2022-12-26T00:13:27.337Z,0
2022-12-26T00:15:07.093Z,0
2022-12-26T00:16:46.855Z,0
2022-12-26T00:18:26.634Z,0
2022-12-26T00:20:06.398Z,0
2022-12-26T00:21:46.164Z,0
2022-12-26T00:23:25.936Z,0
2022-12-26T00:25:05.698Z,0
2022-12-26T00:26:45.477Z,0
2022-12-26T00:28:25.234Z,0
2022-12-26T00:30:05.001Z,0
2022-12-26T00:31:44.768Z,0
2022-12-26T00:33:24.528Z,0
2022-12-26T00:35:04.308Z,0
2022-12-26T00:36:44.066Z,0
2022-12-26T00:38:23.837Z,0
2022-12-26T00:40:03.613Z,0
2022-12-26T00:41:43.380Z,0
2022-12-26T00:43:23.152Z,0
2022-12-26T00:45:02.902Z,0
2022-12-26T00:46:42.677Z,0
2022-12-26T00:48:22.432Z,0
2022-12-26T00:50:02.206Z,0
2022-12-26T00:51:41.983Z,0
2022-12-26T00:53:21.767Z,0
2022-12-26T00:55:01.503Z,0
2022-12-26T00:56:41.272Z,0
2022-12-26T00:58:21.066Z,0
2022-12-26T01:00:00.806Z,0
2022-12-26T01:01:40.596Z,0
2022-12-26T01:03:20.364Z,0
2022-12-26T01:05:00.126Z,0
2022-12-26T01:06:39.905Z,0
2022-12-26T01:08:19.658Z,0
2022-12-26T01:09:59.423Z,0
2022-12-26T01:11:39.178Z,0
2022-12-26T01:13:18.944Z,0
2022-12-26T01:14:58.717Z,0
2022-12-26T01:16:38.476Z,0
2022-12-26T01:18:18.256Z,0
2022-12-26T01:19:58.025Z,0
2022-12-26T01:21:37.856Z,0
2022-12-26T01:23:17.570Z,0
2022-12-26T01:24:57.333Z,0
2022-12-26T01:26:37.104Z,0
2022-12-26T01:28:16.852Z,0
2022-12-26T01:29:56.614Z,0
2022-12-26T01:31:36.423Z,0
2022-12-26T01:33:16.165Z,0
2022-12-26T01:34:55.959Z,0
2022-12-26T01:36:35.690Z,0
2022-12-26T01:38:15.468Z,0
2022-12-26T01:39:55.238Z,0
2022-12-26T01:41:35.027Z,0
2022-12-26T01:43:14.772Z,0
2022-12-26T01:44:54.535Z,0
2022-12-26T01:46:34.316Z,0
2022-12-26T01:48:14.069Z,0
2022-12-26T01:49:53.842Z,0
2022-12-26T01:51:33.608Z,0
2022-12-26T01:53:13.355Z,0
2022-12-26T01:54:53.133Z,0
2022-12-26T01:56:32.890Z,0
2022-12-26T01:58:12.669Z,0
2022-12-26T01:59:52.448Z,0
2022-12-26T02:01:32.209Z,0
2022-12-26T02:03:11.964Z,0
2022-12-26T02:04:51.747Z,0
2022-12-26T02:06:31.511Z,0
2022-12-26T02:08:11.301Z,0
2022-12-26T02:09:51.051Z,0
2022-12-26T02:11:30.841Z,0
2022-12-26T02:13:10.602Z,0
2022-12-26T02:14:50.354Z,0
2022-12-26T02:16:30.110Z,0
2022-12-26T02:18:09.878Z,0
2022-12-26T02:19:49.656Z,0
2022-12-26T02:21:29.415Z,0
2022-12-26T02:23:09.184Z,0
2022-12-26T02:24:48.961Z,0
2022-12-26T02:26:28.710Z,0
2022-12-26T02:28:08.482Z,0
2022-12-26T02:29:48.265Z,0
2022-12-26T02:31:28.029Z,0
2022-12-26T02:33:07.788Z,0
2022-12-26T02:34:47.556Z,0
2022-12-26T02:36:27.329Z,0
2022-12-26T02:38:07.081Z,0
2022-12-26T02:39:46.896Z,0
2022-12-26T02:41:26.632Z,0
2022-12-26T02:43:06.380Z,0
2022-12-26T02:44:46.162Z,0
2022-12-26T02:46:25.962Z,0
2022-12-26T02:48:05.685Z,0
2022-12-26T02:49:45.466Z,0
2022-12-26T02:51:25.226Z,0
2022-12-26T02:53:04.991Z,0
2022-12-26T02:54:44.754Z,0
2022-12-26T02:56:24.523Z,0
2022-12-26T02:58:04.297Z,0
2022-12-26T02:59:44.064Z,0
2022-12-26T03:01:23.831Z,0
2022-12-26T03:03:03.613Z,0
2022-12-26T03:04:43.364Z,0
2022-12-26T03:06:23.132Z,0
2022-12-26T03:08:02.897Z,0
2022-12-26T03:09:42.663Z,0
2022-12-26T03:11:22.440Z,0
2022-12-26T03:13:02.227Z,0
2022-12-26T03:14:41.964Z,0
2022-12-26T03:16:21.738Z,0
2022-12-26T03:18:01.546Z,0
2022-12-26T03:19:41.277Z,0
2022-12-26T03:21:21.038Z,0
2022-12-26T03:23:00.802Z,0
2022-12-26T03:24:40.571Z,0
2022-12-26T03:26:20.359Z,0
2022-12-26T03:28:00.194Z,0
2022-12-26T03:29:39.880Z,0
2022-12-26T03:31:19.654Z,0
2022-12-26T03:32:59.410Z,0
2022-12-26T03:34:39.188Z,0
2022-12-26T03:36:18.941Z,0
2022-12-26T03:37:58.711Z,0
2022-12-26T03:39:38.471Z,0
2022-12-26T03:41:18.242Z,0
2022-12-26T03:42:58.013Z,0
2022-12-26T03:44:37.790Z,0
2022-12-26T03:46:17.568Z,0
2022-12-26T03:47:57.329Z,0
2022-12-26T03:49:37.079Z,0
2022-12-26T03:51:16.850Z,0
2022-12-26T03:52:56.637Z,0
2022-12-26T03:54:36.385Z,0
2022-12-26T03:56:16.145Z,0
2022-12-26T03:57:55.917Z,0
2022-12-26T03:59:35.779Z,0
2022-12-26T04:01:15.441Z,0
2022-12-26T04:02:55.227Z,0
2022-12-26T04:04:34.994Z,0
2022-12-26T04:06:14.758Z,0
2022-12-26T04:07:54.517Z,0
2022-12-26T04:09:34.294Z,0
2022-12-26T04:11:14.067Z,0
2022-12-26T04:12:53.829Z,0
2022-12-26T04:14:33.597Z,0
2022-12-26T04:16:13.358Z,0
2022-12-26T04:17:53.139Z,0
2022-12-26T04:19:32.956Z,0
2022-12-26T04:21:12.662Z,0
2022-12-26T04:22:52.425Z,0
2022-12-26T04:24:32.201Z,0
2022-12-26T04:26:11.964Z,0
2022-12-26T04:27:51.736Z,0
2022-12-26T04:29:31.596Z,0
2022-12-26T04:31:11.260Z,0
2022-12-26T04:32:51.060Z,0
2022-12-26T04:34:30.791Z,0
2022-12-26T04:36:10.572Z,0
2022-12-26T04:37:50.337Z,0
2022-12-26T04:39:30.103Z,0
2022-12-26T04:41:09.859Z,0
2022-12-26T04:42:49.645Z,0
2022-12-26T04:44:29.387Z,0
2022-12-26T04:46:09.167Z,0
2022-12-26T04:47:48.941Z,0
2022-12-26T04:49:28.693Z,0
2022-12-26T04:51:08.510Z,0
2022-12-26T04:52:48.244Z,0
2022-12-26T04:54:28.017Z,0
2022-12-26T04:56:07.782Z,0
2022-12-26T04:57:47.531Z,0
2022-12-26T04:59:27.360Z,0
2022-12-26T05:01:07.074Z,0
2022-12-26T05:02:46.842Z,0
2022-12-26T05:04:26.591Z,0
2022-12-26T05:06:06.386Z,0
2022-12-26T05:07:46.135Z,0
2022-12-26T05:09:25.908Z,0
2022-12-26T05:11:05.676Z,0
2022-12-26T05:12:45.446Z,0
2022-12-26T05:14:25.221Z,0
2022-12-26T05:16:04.977Z,0
2022-12-26T05:17:44.748Z,0
2022-12-26T05:19:24.517Z,0
2022-12-26T05:21:04.295Z,0
2022-12-26T05:22:44.061Z,0
2022-12-26T05:24:23.826Z,0
2022-12-26T05:26:03.575Z,0
2022-12-26T05:27:43.355Z,0
2022-12-26T05:29:23.120Z,0
2022-12-26T05:31:02.887Z,0
2022-12-26T05:32:42.653Z,0
2022-12-26T05:34:22.468Z,0
2022-12-26T05:36:02.208Z,0
2022-12-26T05:37:41.963Z,0
2022-12-26T05:39:21.722Z,0
2022-12-26T05:41:01.525Z,0
2022-12-26T05:42:41.265Z,0
2022-12-26T05:44:21.092Z,0
2022-12-26T05:46:00.817Z,0
2022-12-26T05:47:40.567Z,0
2022-12-26T05:49:20.331Z,0
2022-12-26T05:51:00.101Z,0
2022-12-26T05:52:39.884Z,0
2022-12-26T05:54:19.638Z,0
2022-12-26T05:55:59.380Z,0
2022-12-26T05:57:39.157Z,0
2022-12-26T05:59:18.983Z,0
2022-12-26T06:00:58.696Z,0
2022-12-26T06:02:38.464Z,0
2022-12-26T06:04:18.245Z,0
2022-12-26T06:05:58.004Z,0
2022-12-26T06:07:37.897Z,0
2022-12-26T06:09:17.540Z,0
2022-12-26T06:10:57.299Z,0
2022-12-26T06:12:37.073Z,0
2022-12-26T06:14:16.837Z,0
2022-12-26T06:15:56.596Z,0
2022-12-26T06:17:36.378Z,0
2022-12-26T06:19:16.139Z,0
2022-12-26T06:20:55.975Z,0
2022-12-26T06:22:35.723Z,0
2022-12-26T06:24:15.446Z,0
2022-12-26T06:25:55.207Z,0
2022-12-26T06:27:34.994Z,0
2022-12-26T06:29:14.779Z,0
2022-12-26T06:30:54.511Z,0
2022-12-26T06:32:34.302Z,0
2022-12-26T06:34:14.043Z,0
2022-12-26T06:35:53.806Z,0
2022-12-26T06:37:33.584Z,0
2022-12-26T06:39:13.360Z,0
2022-12-26T06:40:53.123Z,0
2022-12-26T06:42:32.899Z,0
2022-12-26T06:44:12.660Z,0
2022-12-26T06:45:52.418Z,0
2022-12-26T06:47:32.386Z,0
2022-12-26T06:49:12.096Z,0
2022-12-26T06:50:51.855Z,0
2022-12-26T06:52:31.672Z,0
2022-12-26T06:54:11.455Z,0
2022-12-26T06:55:51.141Z,0
2022-12-26T06:57:30.916Z,0.01
2022-12-26T06:59:10.678Z,0
2022-12-26T07:00:50.447Z,0
2022-12-26T07:02:30.211Z,0
2022-12-26T07:04:10.054Z,0
2022-12-26T07:05:49.752Z,0
2022-12-26T07:07:29.616Z,0.02
2022-12-26T07:09:09.298Z,0
2022-12-26T07:10:49.129Z,0
2022-12-26T07:12:28.842Z,0
2022-12-26T07:14:08.748Z,0
2022-12-26T07:15:48.439Z,0
2022-12-26T07:17:28.149Z,0
2022-12-26T07:19:07.967Z,0
2022-12-26T07:20:47.658Z,0
2022-12-26T07:22:27.439Z,0.02
2022-12-26T07:24:07.210Z,0.03
2022-12-26T07:25:46.964Z,0.03
2022-12-26T07:27:26.793Z,0
2022-12-26T07:29:06.523Z,0
2022-12-26T07:30:46.270Z,0
2022-12-26T07:32:26.100Z,0
2022-12-26T07:34:05.823Z,0
2022-12-26T07:35:45.568Z,0.02
2022-12-26T07:37:25.402Z,0.11
2022-12-26T07:39:05.198Z,0.04
2022-12-26T07:40:44.881Z,0
2022-12-26T07:42:24.686Z,0
2022-12-26T07:44:04.565Z,0.06
2022-12-26T07:45:44.177Z,0.12
2022-12-26T07:47:24.092Z,0
2022-12-26T07:49:03.868Z,0.11
2022-12-26T07:50:43.487Z,0.18
2022-12-26T07:52:23.394Z,0.2
2022-12-26T07:54:03.083Z,0.13
2022-12-26T07:55:42.798Z,0.46
2022-12-26T07:57:22.584Z,0.14
2022-12-26T07:59:02.486Z,0.26
2022-12-26T08:00:42.251Z,0.21
2022-12-26T08:02:22.088Z,0.15
2022-12-26T08:04:01.826Z,0.22
2022-12-26T08:05:41.608Z,0.22
2022-12-26T08:07:21.348Z,0.23
2022-12-26T08:09:01.168Z,0.32
2022-12-26T08:10:40.903Z,0.15
2022-12-26T08:12:20.488Z,0.31
2022-12-26T08:14:00.409Z,0.17
2022-12-26T08:15:40.216Z,0.18
2022-12-26T08:17:19.807Z,0.27
2022-12-26T08:18:59.786Z,0.35
2022-12-26T08:20:39.347Z,0.14
2022-12-26T08:22:19.268Z,0.25
2022-12-26T08:23:58.896Z,0.29
2022-12-26T08:25:38.660Z,0.21
2022-12-26T08:27:18.425Z,0.31
2022-12-26T08:28:58.381Z,0.31
2022-12-26T08:30:37.976Z,0.23
2022-12-26T08:32:17.980Z,0.32
2022-12-26T08:33:57.748Z,0.28
2022-12-26T08:35:37.533Z,0.36
2022-12-26T08:37:17.117Z,0.34
2022-12-26T08:38:56.995Z,0.4
2022-12-26T08:40:36.601Z,0.36
2022-12-26T08:42:16.540Z,0.38
2022-12-26T08:43:56.322Z,0.35
2022-12-26T08:45:35.950Z,0.4
2022-12-26T08:47:15.848Z,0.45
2022-12-26T08:48:55.626Z,0.38
2022-12-26T08:50:35.333Z,0.46
2022-12-26T08:52:15.150Z,0.55
2022-12-26T08:53:55.004Z,0.56
2022-12-26T08:55:34.723Z,0.96
2022-12-26T08:57:14.451Z,1.33
2022-12-26T08:58:54.056Z,1.29
2022-12-26T09:00:33.930Z,1.05
2022-12-26T09:02:13.737Z,0.5
2022-12-26T09:03:53.597Z,0.48
2022-12-26T09:05:33.277Z,0.49
2022-12-26T09:07:13.061Z,0.52
2022-12-26T09:08:52.857Z,0.52
2022-12-26T09:10:32.758Z,0.57
2022-12-26T09:12:12.399Z,0.52
2022-12-26T09:13:52.171Z,0.58
2022-12-26T09:15:31.944Z,0.58
2022-12-26T09:17:11.702Z,0.57
2022-12-26T09:18:51.495Z,0.66
2022-12-26T09:20:31.066Z,0.65
2022-12-26T09:22:11.027Z,0.64
2022-12-26T09:23:50.824Z,0.62
2022-12-26T09:25:30.579Z,0.58
2022-12-26T09:27:10.397Z,0.58
2022-12-26T09:28:50.096Z,0.61
2022-12-26T09:30:29.805Z,0.63
2022-12-26T09:32:09.631Z,0.68
2022-12-26T09:33:49.403Z,0.73
2022-12-26T09:35:29.012Z,0.76
2022-12-26T09:37:08.935Z,0.74
2022-12-26T09:38:48.781Z,0.8
2022-12-26T09:40:28.519Z,0.81
2022-12-26T09:42:08.256Z,0.75
2022-12-26T09:43:48.074Z,0.71
2022-12-26T09:45:27.627Z,0.7
2022-12-26T09:47:07.451Z,0.66
2022-12-26T09:48:47.159Z,0.69
2022-12-26T09:50:27.118Z,0.74
2022-12-26T09:52:06.875Z,0.81
2022-12-26T09:53:46.649Z,0.89
2022-12-26T09:55:26.415Z,0.94
2022-12-26T09:57:06.011Z,1.95
2022-12-26T09:58:45.964Z,1.79
2022-12-26T10:00:25.568Z,1.98
2022-12-26T10:02:05.372Z,2.07
2022-12-26T10:03:45.285Z,1.88
2022-12-26T10:05:25.058Z,1.77
2022-12-26T10:07:04.805Z,1.51
2022-12-26T10:08:44.601Z,0.48
2022-12-26T10:10:24.244Z,0.21
2022-12-26T10:12:04.122Z,0.3
2022-12-26T10:13:43.875Z,0.37
2022-12-26T10:15:23.641Z,0.52
2022-12-26T10:17:03.469Z,0.8
2022-12-26T10:18:43.185Z,0.78
2022-12-26T10:20:22.804Z,0.81
2022-12-26T10:22:02.646Z,0.89
2022-12-26T10:23:42.433Z,0.96
2022-12-26T10:25:22.338Z,1.04
2022-12-26T10:27:02.093Z,1.01
2022-12-26T10:28:41.798Z,0.96
2022-12-26T10:30:21.430Z,0.93
2022-12-26T10:32:01.345Z,1.01
2022-12-26T10:33:41.123Z,1.03
2022-12-26T10:35:20.752Z,0.95
2022-12-26T10:37:00.668Z,0.9
2022-12-26T10:38:40.510Z,0.83
2022-12-26T10:40:20.050Z,0.72
2022-12-26T10:41:59.954Z,0.62
2022-12-26T10:43:39.762Z,0.6
2022-12-26T10:45:19.353Z,0.54
2022-12-26T10:46:59.300Z,0.58
2022-12-26T10:48:39.055Z,0.52
2022-12-26T10:50:18.658Z,0.58
2022-12-26T10:51:58.656Z,0.58
2022-12-26T10:53:38.382Z,0.55
2022-12-26T10:55:17.977Z,0.56
2022-12-26T10:56:57.932Z,0.58
2022-12-26T10:58:37.516Z,0.79
2022-12-26T11:00:17.428Z,0.51
2022-12-26T11:01:57.244Z,0.47
2022-12-26T11:03:37.002Z,0.36
2022-12-26T11:05:16.812Z,0.43
2022-12-26T11:06:56.551Z,0.44
2022-12-26T11:08:36.319Z,0.41
2022-12-26T11:10:16.119Z,0.42
2022-12-26T11:11:55.864Z,0.4
2022-12-26T11:13:35.630Z,0.38
2022-12-26T11:15:15.401Z,0.44
2022-12-26T11:16:55.128Z,0.44
2022-12-26T11:18:34.921Z,0.46
2022-12-26T11:20:14.535Z,0.47
2022-12-26T11:21:54.452Z,0.45
2022-12-26T11:23:34.129Z,0.41
2022-12-26T11:25:13.852Z,0.42
2022-12-26T11:26:53.618Z,0.41
2022-12-26T11:28:33.517Z,0.38
2022-12-26T11:30:13.161Z,0.39
2022-12-26T11:31:53.134Z,0.39
2022-12-26T11:33:32.853Z,0.38
2022-12-26T11:35:12.619Z,0.36
2022-12-26T11:36:52.386Z,0.32
2022-12-26T11:38:32.184Z,0.27
2022-12-26T11:40:11.886Z,0.26
2022-12-26T11:41:51.714Z,0.27
2022-12-26T11:43:31.533Z,0.3
2022-12-26T11:45:11.187Z,0.35
2022-12-26T11:46:50.990Z,0.36
2022-12-26T11:48:30.809Z,0.32
2022-12-26T11:50:10.398Z,0.37
2022-12-26T11:51:50.323Z,0.39
2022-12-26T11:53:30.103Z,0.42
2022-12-26T11:55:09.708Z,0.43
2022-12-26T11:56:49.568Z,0.46
2022-12-26T11:58:29.256Z,0.54
2022-12-26T12:00:09.196Z,0.6
2022-12-26T12:01:48.998Z,0.51
2022-12-26T12:03:28.662Z,0.54
2022-12-26T12:05:08.456Z,0.54
2022-12-26T12:06:48.258Z,0.51
2022-12-26T12:08:28.077Z,0.5
2022-12-26T12:10:07.728Z,0.47
2022-12-26T12:11:47.413Z,0.45
2022-12-26T12:13:27.196Z,0.49
2022-12-26T12:15:06.951Z,0.5
2022-12-26T12:16:46.824Z,0.48
2022-12-26T12:18:26.492Z,0.51
2022-12-26T12:20:06.260Z,0.49
2022-12-26T12:21:46.085Z,0.46
2022-12-26T12:23:26.016Z,0.41
2022-12-26T12:25:05.624Z,0.35
2022-12-26T12:26:45.439Z,0.3
2022-12-26T12:28:25.242Z,0.22
2022-12-26T12:30:04.960Z,0.22
2022-12-26T12:31:44.702Z,0.2
2022-12-26T12:33:24.610Z,0.17
2022-12-26T12:35:04.226Z,0.16
2022-12-26T12:36:44.143Z,0.17
2022-12-26T12:38:23.876Z,0.18
2022-12-26T12:40:03.507Z,0.18
2022-12-26T12:41:43.306Z,0.21
2022-12-26T12:43:23.181Z,0.18
2022-12-26T12:45:02.916Z,0.21
2022-12-26T12:46:42.609Z,0.26
2022-12-26T12:48:22.538Z,0.29
2022-12-26T12:50:02.226Z,0.31
2022-12-26T12:51:41.971Z,0.35
2022-12-26T12:53:21.673Z,0.43
2022-12-26T12:55:01.444Z,0.47
2022-12-26T12:56:41.219Z,0.49
2022-12-26T12:58:20.981Z,0.42
2022-12-26T13:00:00.745Z,0.81
2022-12-26T13:01:40.527Z,0.46
2022-12-26T13:03:20.295Z,0.46
2022-12-26T13:05:00.072Z,0.43
2022-12-26T13:06:39.826Z,0.44
2022-12-26T13:08:19.605Z,0.41
2022-12-26T13:09:59.507Z,0.42
2022-12-26T13:11:39.152Z,0.45
2022-12-26T13:13:18.922Z,0.43
2022-12-26T13:14:58.686Z,0.42
2022-12-26T13:16:38.451Z,0.46
2022-12-26T13:18:18.233Z,0.36
2022-12-26T13:19:58.006Z,0.36
2022-12-26T13:21:37.762Z,0.37
2022-12-26T13:23:17.552Z,0.43
2022-12-26T13:24:57.306Z,0.4
2022-12-26T13:26:37.082Z,0.4
2022-12-26T13:28:16.863Z,0.27
2022-12-26T13:29:56.616Z,0.28
2022-12-26T13:31:36.392Z,0.3
2022-12-26T13:33:16.154Z,0.32
2022-12-26T13:34:55.940Z,0.39
2022-12-26T13:36:35.688Z,0.42
2022-12-26T13:38:15.464Z,0.44
2022-12-26T13:39:55.239Z,0.62
2022-12-26T13:41:35.010Z,0.52
2022-12-26T13:43:14.768Z,0.49
2022-12-26T13:44:54.546Z,0.46
2022-12-26T13:46:34.303Z,0.41
2022-12-26T13:48:14.086Z,0.38
2022-12-26T13:49:53.864Z,0.41
2022-12-26T13:51:33.633Z,0.41
2022-12-26T13:53:13.404Z,0.27
2022-12-26T13:54:53.164Z,0.28
2022-12-26T13:56:32.932Z,0.28
2022-12-26T13:58:12.711Z,0.26
2022-12-26T13:59:52.465Z,0.2
2022-12-26T14:01:32.247Z,0.34
2022-12-26T14:03:12.003Z,0.21
2022-12-26T14:04:51.789Z,0.21
2022-12-26T14:06:31.542Z,0.2
2022-12-26T14:08:11.320Z,0.22
2022-12-26T14:09:51.097Z,0.23
2022-12-26T14:11:30.862Z,0.19
2022-12-26T14:13:10.637Z,0.16
2022-12-26T14:14:50.410Z,0.13
2022-12-26T14:16:30.171Z,0.09
2022-12-26T14:18:09.952Z,0.05
2022-12-26T14:19:49.709Z,0.03
2022-12-26T14:21:29.484Z,0.05
2022-12-26T14:23:09.263Z,0.08
2022-12-26T14:24:49.019Z,0.09
2022-12-26T14:26:28.796Z,0.06
2022-12-26T14:28:08.562Z,0.08
2022-12-26T14:29:48.321Z,0.05
2022-12-26T14:31:28.108Z,0.06
2022-12-26T14:33:07.881Z,0.07
2022-12-26T14:34:47.644Z,0.04
2022-12-26T14:36:27.418Z,0.04
2022-12-26T14:38:07.166Z,0.04
2022-12-26T14:39:46.939Z,0.03
2022-12-26T14:41:26.707Z,0.02
2022-12-26T14:43:06.475Z,0
2022-12-26T14:44:46.246Z,0
2022-12-26T14:46:26.022Z,0
2022-12-26T14:48:05.785Z,0
2022-12-26T14:49:45.547Z,0
2022-12-26T14:51:25.340Z,0
2022-12-26T14:53:05.091Z,0
2022-12-26T14:54:44.856Z,0
2022-12-26T14:56:24.627Z,0
2022-12-26T14:58:04.382Z,0
2022-12-26T14:59:44.182Z,0
2022-12-26T15:01:23.943Z,0
2022-12-26T15:03:03.704Z,0
2022-12-26T15:04:43.464Z,0
2022-12-26T15:06:23.244Z,0
2022-12-26T15:08:02.984Z,0
2022-12-26T15:09:42.781Z,0
2022-12-26T15:11:22.527Z,0
2022-12-26T15:13:02.314Z,0
2022-12-26T15:14:42.067Z,0
2022-12-26T15:16:21.827Z,0
2022-12-26T15:18:01.619Z,0
2022-12-26T15:19:41.369Z,0
2022-12-26T15:21:21.122Z,0
2022-12-26T15:23:00.896Z,0
2022-12-26T15:24:40.678Z,0
2022-12-26T15:26:20.433Z,0
2022-12-26T15:28:00.216Z,0
2022-12-26T15:29:39.983Z,0
2022-12-26T15:31:19.749Z,0
2022-12-26T15:32:59.513Z,0
2022-12-26T15:34:39.285Z,0
2022-12-26T15:36:19.030Z,0
2022-12-26T15:37:58.855Z,0
2022-12-26T15:39:38.561Z,0
2022-12-26T15:41:18.481Z,0
2022-12-26T15:42:58.129Z,0
2022-12-26T15:44:37.875Z,0
2022-12-26T15:46:17.652Z,0
2022-12-26T15:47:57.434Z,0
2022-12-26T15:49:37.176Z,0
2022-12-26T15:51:16.953Z,0
2022-12-26T15:52:56.715Z,0
2022-12-26T15:54:36.509Z,0
2022-12-26T15:56:16.308Z,0
2022-12-26T15:57:56.010Z,0
2022-12-26T15:59:35.816Z,0
2022-12-26T16:01:15.634Z,0
2022-12-26T16:02:55.399Z,0
2022-12-26T16:04:35.091Z,0
2022-12-26T16:06:14.903Z,0
2022-12-26T16:07:54.629Z,0
2022-12-26T16:09:34.385Z,0
2022-12-26T16:11:14.164Z,0
2022-12-26T16:12:53.910Z,0
2022-12-26T16:14:33.693Z,0
2022-12-26T16:16:13.441Z,0
2022-12-26T16:17:53.275Z,0
2022-12-26T16:19:33.002Z,0
2022-12-26T16:21:12.827Z,0
2022-12-26T16:22:52.561Z,0
2022-12-26T16:24:32.298Z,0
2022-12-26T16:26:12.120Z,0
2022-12-26T16:27:51.912Z,0
2022-12-26T16:29:31.626Z,0
2022-12-26T16:31:11.364Z,0
2022-12-26T16:32:51.160Z,0
2022-12-26T16:34:30.898Z,0
2022-12-26T16:36:10.655Z,0
2022-12-26T16:37:50.472Z,0
2022-12-26T16:39:30.204Z,0
2022-12-26T16:41:09.965Z,0
2022-12-26T16:42:49.720Z,0
2022-12-26T16:44:29.496Z,0
2022-12-26T16:46:09.324Z,0
2022-12-26T16:47:49.034Z,0
2022-12-26T16:49:28.797Z,0
2022-12-26T16:51:08.581Z,0
2022-12-26T16:52:48.332Z,0
2022-12-26T16:54:28.186Z,0
2022-12-26T16:56:07.886Z,0
2022-12-26T16:57:47.635Z,0
2022-12-26T16:59:27.399Z,0
2022-12-26T17:01:07.329Z,0
2022-12-26T17:02:46.939Z,0
2022-12-26T17:04:26.761Z,0
2022-12-26T17:06:06.486Z,0
2022-12-26T17:07:46.248Z,0
2022-12-26T17:09:26.005Z,0
2022-12-26T17:11:05.882Z,0
2022-12-26T17:12:45.563Z,0
2022-12-26T17:14:25.314Z,0
2022-12-26T17:16:05.117Z,0
2022-12-26T17:17:44.857Z,0
2022-12-26T17:19:24.611Z,0
2022-12-26T17:21:04.382Z,0
2022-12-26T17:22:44.252Z,0
2022-12-26T17:24:23.964Z,0
2022-12-26T17:26:03.675Z,0
2022-12-26T17:27:43.500Z,0
2022-12-26T17:29:23.208Z,0
2022-12-26T17:31:02.997Z,0
2022-12-26T17:32:42.801Z,0
2022-12-26T17:34:22.549Z,0
2022-12-26T17:36:02.333Z,0
2022-12-26T17:37:42.064Z,0
2022-12-26T17:39:21.816Z,0
2022-12-26T17:41:01.588Z,0
2022-12-26T17:42:41.348Z,0
2022-12-26T17:44:21.125Z,0
2022-12-26T17:46:00.886Z,0
2022-12-26T17:47:40.653Z,0
2022-12-26T17:49:20.438Z,0
2022-12-26T17:51:00.192Z,0
2022-12-26T17:52:40.008Z,0
2022-12-26T17:54:19.737Z,0
2022-12-26T17:55:59.498Z,0
2022-12-26T17:57:39.303Z,0
2022-12-26T17:59:19.030Z,0
2022-12-26T18:00:58.784Z,0
2022-12-26T18:02:38.551Z,0
2022-12-26T18:04:18.402Z,0
2022-12-26T18:05:58.185Z,0
2022-12-26T18:07:37.945Z,0
2022-12-26T18:09:17.647Z,0
2022-12-26T18:10:57.461Z,0
2022-12-26T18:12:37.136Z,0
2022-12-26T18:14:16.890Z,0
2022-12-26T18:15:56.737Z,0
2022-12-26T18:17:36.425Z,0
2022-12-26T18:19:16.272Z,0
2022-12-26T18:20:55.981Z,0
2022-12-26T18:22:35.805Z,0
2022-12-26T18:24:15.549Z,0
2022-12-26T18:25:55.252Z,0
2022-12-26T18:27:35.075Z,0
2022-12-26T18:29:14.787Z,0
2022-12-26T18:30:54.611Z,0
2022-12-26T18:32:34.312Z,0
2022-12-26T18:34:14.073Z,0
2022-12-26T18:35:53.901Z,0
2022-12-26T18:37:33.768Z,0
2022-12-26T18:39:13.392Z,0
2022-12-26T18:40:53.146Z,0
2022-12-26T18:42:32.892Z,0
2022-12-26T18:44:12.724Z,0
2022-12-26T18:45:52.421Z,0
2022-12-26T18:47:32.184Z,0
2022-12-26T18:49:11.995Z,0
2022-12-26T18:50:51.732Z,0
2022-12-26T18:52:31.491Z,0
2022-12-26T18:54:11.400Z,0
2022-12-26T18:55:51.007Z,0
2022-12-26T18:57:30.770Z,0
2022-12-26T18:59:10.540Z,0
2022-12-26T19:00:50.338Z,0
2022-12-26T19:02:30.106Z,0
2022-12-26T19:04:09.839Z,0
2022-12-26T19:05:49.644Z,0
2022-12-26T19:07:29.359Z,0
2022-12-26T19:09:09.190Z,0
2022-12-26T19:10:48.996Z,0
2022-12-26T19:12:28.725Z,0
2022-12-26T19:14:08.406Z,0
2022-12-26T19:15:48.257Z,0
2022-12-26T19:17:27.967Z,0
2022-12-26T19:19:07.784Z,0
2022-12-26T19:20:47.478Z,0
2022-12-26T19:22:27.302Z,0
2022-12-26T19:24:07.050Z,0
2022-12-26T19:25:46.791Z,0
2022-12-26T19:27:26.576Z,0
2022-12-26T19:29:06.350Z,0
2022-12-26T19:30:46.062Z,0
2022-12-26T19:32:25.830Z,0
2022-12-26T19:34:05.636Z,0
2022-12-26T19:35:45.475Z,0
2022-12-26T19:37:25.178Z,0
2022-12-26T19:39:05.033Z,0
2022-12-26T19:40:44.845Z,0
2022-12-26T19:42:24.411Z,0
2022-12-26T19:44:04.257Z,0
2022-12-26T19:45:44.095Z,0
2022-12-26T19:47:23.868Z,0
2022-12-26T19:49:03.506Z,0
2022-12-26T19:50:43.277Z,0
2022-12-26T19:52:23.009Z,0
2022-12-26T19:54:02.810Z,0
2022-12-26T19:55:42.571Z,0
2022-12-26T19:57:22.292Z,0
2022-12-26T19:59:02.163Z,0
2022-12-26T20:00:41.961Z,0
2022-12-26T20:02:21.576Z,0
2022-12-26T20:04:01.422Z,0
2022-12-26T20:05:41.191Z,0
2022-12-26T20:07:20.896Z,0
2022-12-26T20:09:00.638Z,0
2022-12-26T20:10:40.492Z,0
2022-12-26T20:12:20.179Z,0
2022-12-26T20:14:00.200Z,0
2022-12-26T20:15:39.831Z,0
2022-12-26T20:17:19.616Z,0
2022-12-26T20:18:59.241Z,0
2022-12-26T20:20:39.129Z,0
2022-12-26T20:22:18.907Z,0
2022-12-26T20:23:58.548Z,0
2022-12-26T20:25:38.378Z,0
2022-12-26T20:27:18.139Z,0
2022-12-26T20:28:57.814Z,0
2022-12-26T20:30:37.645Z,0
2022-12-26T20:32:17.400Z,0
2022-12-26T20:33:57.095Z,0
2022-12-26T20:35:36.916Z,0
2022-12-26T20:37:16.687Z,0
2022-12-26T20:38:56.387Z,0
2022-12-26T20:40:36.237Z,0
2022-12-26T20:42:15.969Z,0
2022-12-26T20:43:55.735Z,0
2022-12-26T20:45:35.476Z,0
2022-12-26T20:47:15.386Z,0
2022-12-26T20:48:55.044Z,0
2022-12-26T20:50:34.897Z,0
2022-12-26T20:52:14.671Z,0
2022-12-26T20:53:54.333Z,0
2022-12-26T20:55:34.169Z,0
2022-12-26T20:57:13.889Z,0
2022-12-26T20:58:53.568Z,0
2022-12-26T21:00:33.387Z,0
2022-12-26T21:02:13.236Z,0
2022-12-26T21:03:52.991Z,0
2022-12-26T21:05:32.649Z,0
2022-12-26T21:07:12.453Z,0
2022-12-26T21:08:52.167Z,0
2022-12-26T21:10:31.917Z,0
2022-12-26T21:12:11.672Z,0
2022-12-26T21:13:51.443Z,0
2022-12-26T21:15:31.250Z,0
2022-12-26T21:17:10.985Z,0
2022-12-26T21:18:50.756Z,0
2022-12-26T21:20:30.533Z,0
2022-12-26T21:22:10.258Z,0
2022-12-26T21:23:50.054Z,0
2022-12-26T21:25:29.800Z,0
2022-12-26T21:27:09.654Z,0
2022-12-26T21:28:49.335Z,0
2022-12-26T21:30:29.129Z,0
2022-12-26T21:32:08.850Z,0
2022-12-26T21:33:48.656Z,0
2022-12-26T21:35:28.449Z,0
2022-12-26T21:37:08.152Z,0
2022-12-26T21:38:48.002Z,0
2022-12-26T21:40:27.663Z,0
2022-12-26T21:42:07.445Z,0
2022-12-26T21:43:47.276Z,0
2022-12-26T21:45:27.102Z,0
2022-12-26T21:47:06.730Z,0
2022-12-26T21:48:46.500Z,0
2022-12-26T21:50:26.275Z,0
2022-12-26T21:52:06.019Z,0
2022-12-26T21:53:45.794Z,0
2022-12-26T21:55:25.547Z,0
2022-12-26T21:57:05.329Z,0
2022-12-26T21:58:45.085Z,0
2022-12-26T22:00:24.829Z,0
2022-12-26T22:02:04.603Z,0
2022-12-26T22:03:44.426Z,0
2022-12-26T22:05:24.145Z,0
2022-12-26T22:07:03.897Z,0
2022-12-26T22:08:43.665Z,0
2022-12-26T22:10:23.427Z,0
2022-12-26T22:12:03.205Z,0
2022-12-26T22:13:42.970Z,0
2022-12-26T22:15:22.728Z,0
2022-12-26T22:17:02.601Z,0
2022-12-26T22:18:42.267Z,0
2022-12-26T22:20:22.017Z,0
2022-12-26T22:22:01.814Z,0
2022-12-26T22:23:41.538Z,0
2022-12-26T22:25:21.319Z,0
2022-12-26T22:27:01.069Z,0
2022-12-26T22:28:40.823Z,0
2022-12-26T22:30:20.607Z,0
2022-12-26T22:32:00.377Z,0
2022-12-26T22:33:40.129Z,0
2022-12-26T22:35:19.904Z,0
2022-12-26T22:36:59.706Z,0
2022-12-26T22:38:39.453Z,0
2022-12-26T22:40:19.205Z,0
2022-12-26T22:41:58.957Z,0
2022-12-26T22:43:38.716Z,0
2022-12-26T22:45:18.486Z,0
2022-12-26T22:46:58.254Z,0
2022-12-26T22:48:38.004Z,0
2022-12-26T22:50:17.775Z,0
2022-12-26T22:51:57.546Z,0
2022-12-26T22:53:37.296Z,0
2022-12-26T22:55:17.064Z,0
2022-12-26T22:56:56.824Z,0
2022-12-26T22:58:36.590Z,0
2022-12-26T23:00:16.465Z,0
2022-12-26T23:01:56.247Z,0
2022-12-26T23:03:35.931Z,0
2022-12-26T23:05:15.671Z,0
2022-12-26T23:06:55.421Z,0
2022-12-26T23:08:35.274Z,0
2022-12-26T23:10:14.969Z,0
2022-12-26T23:11:54.723Z,0
2022-12-26T23:13:34.496Z,0
2022-12-26T23:15:14.237Z,0
2022-12-26T23:16:54.082Z,0
2022-12-26T23:18:33.778Z,0
2022-12-26T23:20:13.539Z,0
2022-12-26T23:21:53.368Z,0
2022-12-26T23:23:33.080Z,0
2022-12-26T23:25:12.883Z,0
2022-12-26T23:26:52.701Z,0
2022-12-26T23:28:32.343Z,0
2022-12-26T23:30:12.196Z,0
2022-12-26T23:31:51.885Z,0
2022-12-26T23:33:31.647Z,0
2022-12-26T23:35:11.398Z,0
2022-12-26T23:36:51.214Z,0
2022-12-26T23:38:30.957Z,0
2022-12-26T23:40:10.795Z,0
2022-12-26T23:41:50.473Z,0
2022-12-26T23:43:30.225Z,0
2022-12-26T23:45:10.013Z,0
2022-12-26T23:46:49.778Z,0
2022-12-26T23:48:29.528Z,0